Main page
METAR-TAF:

METAR-TAF

Airports :

Kuwait International Airport

Kuwait City, Kuwait

latitude: 29-13N, longitude: 047-59E, elevation: 55 m

Current weather observation

The report was made 32 minutes ago, at 22:00 UTC
Wind 4 kt from the West
Temperature 11°C
Humidity 43%
Pressure 1019 hPa
Visibility 10 km or more
no clouds below 1500 m and no cumulonimbus

METAR: OKBK 182200Z 27004KT CAVOK 11/M01 Q1019 NOSIG

Time: 01:32 (22:32 UTC)

Forecast

The report was made 5 hours and 47 minutes ago, at 16:45 UTC
Forecast valid from 18 at 18 UTC to 19 at 24 UTC
Wind 10 kt from the North/Northwest
Visibility: 7000 m
Clear sky

TAF: OKBK 181645Z 1818/1924 34010KT 7000 SKC

Weather observations and forecasts of more than 4000 airports (METAR and TAF reports).

The available stations are represented by yellow and red dots on the map.

Hover mouse over dot to see the name of the station.

Then click to see weather observations and forecasts.

To change the map : click on the green buttons with a black cross to zoom in, on the green button with a dash to zoom out, or on the green arrows for adjacent maps.


METAR-TAF: